sensor_id;sensor_type;location;lat;lon;timestamp;P1;durP1;ratioP1;P2;durP2;ratioP2
2289;SDS011;1153;47.986;7.898;2024-01-30T00:01:15;1.03;;;0.50;;
2289;SDS011;1153;47.986;7.898;2024-01-30T00:03:40;1.20;;;0.83;;
2289;SDS011;1153;47.986;7.898;2024-01-30T00:06:05;2.00;;;0.80;;
2289;SDS011;1153;47.986;7.898;2024-01-30T00:08:31;0.93;;;0.53;;
2289;SDS011;1153;47.986;7.898;2024-01-30T00:10:56;1.33;;;0.80;;
2289;SDS011;1153;47.986;7.898;2024-01-30T00:13:21;4.30;;;0.80;;
2289;SDS011;1153;47.986;7.898;2024-01-30T00:15:46;1.70;;;0.90;;
2289;SDS011;1153;47.986;7.898;2024-01-30T00:18:11;1.07;;;0.73;;
2289;SDS011;1153;47.986;7.898;2024-01-30T00:20:37;1.40;;;0.70;;
2289;SDS011;1153;47.986;7.898;2024-01-30T00:23:02;1.40;;;1.08;;
2289;SDS011;1153;47.986;7.898;2024-01-30T00:25:27;1.10;;;0.60;;
2289;SDS011;1153;47.986;7.898;2024-01-30T00:27:52;1.10;;;0.60;;
2289;SDS011;1153;47.986;7.898;2024-01-30T00:30:18;1.75;;;0.60;;
2289;SDS011;1153;47.986;7.898;2024-01-30T00:32:43;2.80;;;0.67;;
2289;SDS011;1153;47.986;7.898;2024-01-30T00:35:08;1.00;;;0.65;;
2289;SDS011;1153;47.986;7.898;2024-01-30T00:37:35;2.60;;;0.60;;
2289;SDS011;1153;47.986;7.898;2024-01-30T00:40:00;1.20;;;0.90;;
2289;SDS011;1153;47.986;7.898;2024-01-30T00:42:25;3.60;;;1.20;;
2289;SDS011;1153;47.986;7.898;2024-01-30T00:44:51;0.90;;;0.60;;
2289;SDS011;1153;47.986;7.898;2024-01-30T00:47:19;0.93;;;0.70;;
2289;SDS011;1153;47.986;7.898;2024-01-30T00:49:44;0.90;;;0.67;;
2289;SDS011;1153;47.986;7.898;2024-01-30T00:52:09;2.53;;;0.90;;
2289;SDS011;1153;47.986;7.898;2024-01-30T00:54:35;2.30;;;0.73;;
2289;SDS011;1153;47.986;7.898;2024-01-30T00:57:00;0.90;;;0.60;;
2289;SDS011;1153;47.986;7.898;2024-01-30T00:59:25;0.95;;;0.80;;
2289;SDS011;1153;47.986;7.898;2024-01-30T01:01:50;1.05;;;0.50;;
2289;SDS011;1153;47.986;7.898;2024-01-30T01:04:15;1.10;;;0.70;;
2289;SDS011;1153;47.986;7.898;2024-01-30T01:06:41;3.40;;;0.80;;
2289;SDS011;1153;47.986;7.898;2024-01-30T01:09:08;1.63;;;0.50;;
2289;SDS011;1153;47.986;7.898;2024-01-30T01:11:34;0.90;;;0.60;;
2289;SDS011;1153;47.986;7.898;2024-01-30T01:13:59;6.13;;;1.00;;
2289;SDS011;1153;47.986;7.898;2024-01-30T01:16:24;1.35;;;0.60;;
2289;SDS011;1153;47.986;7.898;2024-01-30T01:18:49;0.80;;;0.60;;
2289;SDS011;1153;47.986;7.898;2024-01-30T01:21:15;1.35;;;0.65;;
2289;SDS011;1153;47.986;7.898;2024-01-30T01:23:40;0.90;;;0.50;;
2289;SDS011;1153;47.986;7.898;2024-01-30T01:26:05;1.43;;;0.80;;
2289;SDS011;1153;47.986;7.898;2024-01-30T01:28:30;2.00;;;0.60;;
2289;SDS011;1153;47.986;7.898;2024-01-30T01:30:55;0.90;;;0.50;;
2289;SDS011;1153;47.986;7.898;2024-01-30T01:33:24;0.83;;;0.50;;
2289;SDS011;1153;47.986;7.898;2024-01-30T01:35:49;0.97;;;0.50;;
2289;SDS011;1153;47.986;7.898;2024-01-30T01:38:15;1.80;;;0.60;;
2289;SDS011;1153;47.986;7.898;2024-01-30T01:40:40;1.50;;;0.80;;
2289;SDS011;1153;47.986;7.898;2024-01-30T01:43:06;6.73;;;1.20;;
2289;SDS011;1153;47.986;7.898;2024-01-30T01:45:31;1.13;;;0.70;;
2289;SDS011;1153;47.986;7.898;2024-01-30T01:47:56;0.93;;;0.50;;
2289;SDS011;1153;47.986;7.898;2024-01-30T01:50:21;2.07;;;1.00;;
2289;SDS011;1153;47.986;7.898;2024-01-30T01:52:50;1.73;;;0.67;;
2289;SDS011;1153;47.986;7.898;2024-01-30T01:55:15;1.70;;;0.60;;
2289;SDS011;1153;47.986;7.898;2024-01-30T01:57:44;1.00;;;0.60;;
2289;SDS011;1153;47.986;7.898;2024-01-30T02:00:09;1.00;;;0.60;;
2289;SDS011;1153;47.986;7.898;2024-01-30T02:02:35;2.97;;;0.70;;
2289;SDS011;1153;47.986;7.898;2024-01-30T02:05:01;0.90;;;0.70;;
2289;SDS011;1153;47.986;7.898;2024-01-30T02:07:26;2.07;;;0.80;;
2289;SDS011;1153;47.986;7.898;2024-01-30T02:09:52;2.07;;;0.57;;
2289;SDS011;1153;47.986;7.898;2024-01-30T02:12:17;0.70;;;0.50;;
2289;SDS011;1153;47.986;7.898;2024-01-30T02:14:45;0.80;;;0.50;;
2289;SDS011;1153;47.986;7.898;2024-01-30T02:17:11;2.03;;;0.60;;
2289;SDS011;1153;47.986;7.898;2024-01-30T02:19:36;0.87;;;0.60;;
2289;SDS011;1153;47.986;7.898;2024-01-30T02:22:01;2.50;;;0.70;;
2289;SDS011;1153;47.986;7.898;2024-01-30T02:24:27;4.47;;;0.70;;
2289;SDS011;1153;47.986;7.898;2024-01-30T02:26:52;5.73;;;0.93;;
2289;SDS011;1153;47.986;7.898;2024-01-30T02:29:17;1.00;;;0.50;;
2289;SDS011;1153;47.986;7.898;2024-01-30T02:31:42;1.63;;;0.93;;
2289;SDS011;1153;47.986;7.898;2024-01-30T02:34:07;2.00;;;1.33;;
2289;SDS011;1153;47.986;7.898;2024-01-30T02:36:33;1.33;;;0.80;;
2289;SDS011;1153;47.986;7.898;2024-01-30T02:38:58;1.38;;;0.75;;
2289;SDS011;1153;47.986;7.898;2024-01-30T02:41:23;2.40;;;0.93;;
2289;SDS011;1153;47.986;7.898;2024-01-30T02:43:48;1.00;;;0.60;;
2289;SDS011;1153;47.986;7.898;2024-01-30T02:46:13;0.80;;;0.40;;
2289;SDS011;1153;47.986;7.898;2024-01-30T02:48:38;1.00;;;0.50;;
2289;SDS011;1153;47.986;7.898;2024-01-30T02:51:04;1.07;;;0.70;;
2289;SDS011;1153;47.986;7.898;2024-01-30T02:53:29;1.35;;;0.65;;
2289;SDS011;1153;47.986;7.898;2024-01-30T02:55:54;0.95;;;0.60;;
2289;SDS011;1153;47.986;7.898;2024-01-30T02:58:19;0.90;;;0.60;;
2289;SDS011;1153;47.986;7.898;2024-01-30T03:00:44;1.57;;;0.60;;
2289;SDS011;1153;47.986;7.898;2024-01-30T03:03:09;1.37;;;0.80;;
2289;SDS011;1153;47.986;7.898;2024-01-30T03:05:35;1.30;;;0.70;;
2289;SDS011;1153;47.986;7.898;2024-01-30T03:08:00;1.80;;;0.70;;
2289;SDS011;1153;47.986;7.898;2024-01-30T03:10:25;1.20;;;0.70;;
2289;SDS011;1153;47.986;7.898;2024-01-30T03:12:50;0.80;;;0.52;;
2289;SDS011;1153;47.986;7.898;2024-01-30T03:15:16;1.43;;;1.33;;
2289;SDS011;1153;47.986;7.898;2024-01-30T03:17:41;1.48;;;0.77;;
2289;SDS011;1153;47.986;7.898;2024-01-30T03:20:06;3.33;;;0.70;;
2289;SDS011;1153;47.986;7.898;2024-01-30T03:22:31;1.43;;;0.50;;
2289;SDS011;1153;47.986;7.898;2024-01-30T03:24:56;1.00;;;0.50;;
2289;SDS011;1153;47.986;7.898;2024-01-30T03:27:22;0.80;;;0.50;;
2289;SDS011;1153;47.986;7.898;2024-01-30T03:29:47;4.50;;;0.60;;
2289;SDS011;1153;47.986;7.898;2024-01-30T03:32:12;1.53;;;0.70;;
2289;SDS011;1153;47.986;7.898;2024-01-30T03:34:37;2.23;;;0.60;;
2289;SDS011;1153;47.986;7.898;2024-01-30T03:37:02;0.90;;;0.60;;
2289;SDS011;1153;47.986;7.898;2024-01-30T03:39:27;2.60;;;0.60;;
2289;SDS011;1153;47.986;7.898;2024-01-30T03:41:53;2.17;;;0.60;;
2289;SDS011;1153;47.986;7.898;2024-01-30T03:44:18;1.33;;;0.63;;
2289;SDS011;1153;47.986;7.898;2024-01-30T03:46:43;1.23;;;0.70;;
2289;SDS011;1153;47.986;7.898;2024-01-30T03:49:09;1.27;;;0.67;;
2289;SDS011;1153;47.986;7.898;2024-01-30T03:51:34;1.83;;;0.60;;
2289;SDS011;1153;47.986;7.898;2024-01-30T03:53:59;1.00;;;0.50;;
2289;SDS011;1153;47.986;7.898;2024-01-30T03:56:24;1.40;;;0.60;;
2289;SDS011;1153;47.986;7.898;2024-01-30T03:58:50;5.83;;;0.60;;
2289;SDS011;1153;47.986;7.898;2024-01-30T04:01:16;2.70;;;0.70;;
2289;SDS011;1153;47.986;7.898;2024-01-30T04:03:41;1.50;;;0.70;;
2289;SDS011;1153;47.986;7.898;2024-01-30T04:06:07;2.03;;;0.83;;
2289;SDS011;1153;47.986;7.898;2024-01-30T04:08:32;0.93;;;0.77;;
2289;SDS011;1153;47.986;7.898;2024-01-30T04:10:57;5.32;;;0.85;;
2289;SDS011;1153;47.986;7.898;2024-01-30T04:13:22;1.10;;;0.50;;
2289;SDS011;1153;47.986;7.898;2024-01-30T04:15:48;1.92;;;0.70;;
2289;SDS011;1153;47.986;7.898;2024-01-30T04:18:13;0.93;;;0.60;;
2289;SDS011;1153;47.986;7.898;2024-01-30T04:20:38;1.23;;;0.60;;
2289;SDS011;1153;47.986;7.898;2024-01-30T04:23:03;1.30;;;0.80;;
2289;SDS011;1153;47.986;7.898;2024-01-30T04:25:28;1.00;;;0.90;;
2289;SDS011;1153;47.986;7.898;2024-01-30T04:27:53;1.60;;;1.05;;
2289;SDS011;1153;47.986;7.898;2024-01-30T04:30:19;0.83;;;0.57;;
2289;SDS011;1153;47.986;7.898;2024-01-30T04:32:44;27.70;;;7.30;;
2289;SDS011;1153;47.986;7.898;2024-01-30T04:35:09;35.53;;;10.20;;
2289;SDS011;1153;47.986;7.898;2024-01-30T04:37:34;3.20;;;1.00;;
2289;SDS011;1153;47.986;7.898;2024-01-30T04:40:00;4.13;;;1.03;;
2289;SDS011;1153;47.986;7.898;2024-01-30T04:42:25;1.87;;;1.07;;
2289;SDS011;1153;47.986;7.898;2024-01-30T04:44:50;3.90;;;1.50;;
2289;SDS011;1153;47.986;7.898;2024-01-30T04:47:15;1.10;;;0.97;;
2289;SDS011;1153;47.986;7.898;2024-01-30T04:49:40;1.83;;;1.17;;
2289;SDS011;1153;47.986;7.898;2024-01-30T04:52:06;1.60;;;0.70;;
2289;SDS011;1153;47.986;7.898;2024-01-30T04:54:32;0.93;;;0.60;;
2289;SDS011;1153;47.986;7.898;2024-01-30T04:56:57;1.53;;;1.07;;
2289;SDS011;1153;47.986;7.898;2024-01-30T04:59:22;1.13;;;0.70;;
2289;SDS011;1153;47.986;7.898;2024-01-30T05:01:47;1.50;;;0.90;;
2289;SDS011;1153;47.986;7.898;2024-01-30T05:04:12;4.80;;;1.20;;
2289;SDS011;1153;47.986;7.898;2024-01-30T05:06:38;4.50;;;1.67;;
2289;SDS011;1153;47.986;7.898;2024-01-30T05:09:03;1.67;;;1.20;;
2289;SDS011;1153;47.986;7.898;2024-01-30T05:11:31;1.43;;;1.10;;
2289;SDS011;1153;47.986;7.898;2024-01-30T05:13:56;1.70;;;1.00;;
2289;SDS011;1153;47.986;7.898;2024-01-30T05:16:22;1.10;;;0.80;;
2289;SDS011;1153;47.986;7.898;2024-01-30T05:18:47;1.10;;;1.00;;
2289;SDS011;1153;47.986;7.898;2024-01-30T05:21:12;1.20;;;0.70;;
2289;SDS011;1153;47.986;7.898;2024-01-30T05:23:37;7.00;;;1.00;;
2289;SDS011;1153;47.986;7.898;2024-01-30T05:26:02;1.60;;;1.50;;
2289;SDS011;1153;47.986;7.898;2024-01-30T05:28:30;3.40;;;1.50;;
2289;SDS011;1153;47.986;7.898;2024-01-30T05:30:56;1.80;;;1.30;;
2289;SDS011;1153;47.986;7.898;2024-01-30T05:33:21;1.90;;;1.20;;
2289;SDS011;1153;47.986;7.898;2024-01-30T05:35:47;4.30;;;1.37;;
2289;SDS011;1153;47.986;7.898;2024-01-30T05:38:12;2.83;;;1.40;;
2289;SDS011;1153;47.986;7.898;2024-01-30T05:40:37;1.40;;;0.90;;
2289;SDS011;1153;47.986;7.898;2024-01-30T05:43:02;1.30;;;1.13;;
2289;SDS011;1153;47.986;7.898;2024-01-30T05:45:28;1.23;;;0.93;;
2289;SDS011;1153;47.986;7.898;2024-01-30T05:47:53;2.35;;;1.63;;
2289;SDS011;1153;47.986;7.898;2024-01-30T05:50:19;1.83;;;1.07;;
2289;SDS011;1153;47.986;7.898;2024-01-30T05:52:44;6.60;;;1.67;;
2289;SDS011;1153;47.986;7.898;2024-01-30T05:55:09;2.83;;;2.60;;
2289;SDS011;1153;47.986;7.898;2024-01-30T05:57:36;1.50;;;1.40;;
2289;SDS011;1153;47.986;7.898;2024-01-30T06:00:02;4.40;;;3.50;;
2289;SDS011;1153;47.986;7.898;2024-01-30T06:02:28;1.63;;;0.90;;
2289;SDS011;1153;47.986;7.898;2024-01-30T06:04:53;1.47;;;1.37;;
2289;SDS011;1153;47.986;7.898;2024-01-30T06:07:19;1.55;;;1.20;;
2289;SDS011;1153;47.986;7.898;2024-01-30T06:09:44;1.10;;;0.70;;
2289;SDS011;1153;47.986;7.898;2024-01-30T06:12:10;1.20;;;0.90;;
2289;SDS011;1153;47.986;7.898;2024-01-30T06:14:37;6.33;;;1.37;;
2289;SDS011;1153;47.986;7.898;2024-01-30T06:17:02;1.10;;;1.00;;
2289;SDS011;1153;47.986;7.898;2024-01-30T06:19:27;1.70;;;1.50;;
2289;SDS011;1153;47.986;7.898;2024-01-30T06:21:52;3.93;;;0.70;;
2289;SDS011;1153;47.986;7.898;2024-01-30T06:24:18;2.23;;;0.83;;
2289;SDS011;1153;47.986;7.898;2024-01-30T06:26:43;1.45;;;0.77;;
2289;SDS011;1153;47.986;7.898;2024-01-30T06:29:09;1.40;;;1.20;;
2289;SDS011;1153;47.986;7.898;2024-01-30T06:31:39;1.90;;;1.27;;
2289;SDS011;1153;47.986;7.898;2024-01-30T06:34:04;1.67;;;1.20;;
2289;SDS011;1153;47.986;7.898;2024-01-30T06:36:29;1.45;;;1.15;;
2289;SDS011;1153;47.986;7.898;2024-01-30T06:38:54;1.58;;;1.48;;
2289;SDS011;1153;47.986;7.898;2024-01-30T06:41:20;2.88;;;0.88;;
2289;SDS011;1153;47.986;7.898;2024-01-30T06:43:45;2.70;;;1.63;;
2289;SDS011;1153;47.986;7.898;2024-01-30T06:46:11;1.60;;;1.47;;
2289;SDS011;1153;47.986;7.898;2024-01-30T06:48:36;5.23;;;1.87;;
2289;SDS011;1153;47.986;7.898;2024-01-30T06:51:02;2.70;;;2.23;;
2289;SDS011;1153;47.986;7.898;2024-01-30T06:53:27;1.70;;;1.60;;
2289;SDS011;1153;47.986;7.898;2024-01-30T06:55:52;3.80;;;1.90;;
2289;SDS011;1153;47.986;7.898;2024-01-30T06:58:17;6.55;;;2.40;;
2289;SDS011;1153;47.986;7.898;2024-01-30T07:00:42;1.43;;;0.77;;
2289;SDS011;1153;47.986;7.898;2024-01-30T07:03:08;2.00;;;1.90;;
2289;SDS011;1153;47.986;7.898;2024-01-30T07:05:33;4.53;;;4.13;;
2289;SDS011;1153;47.986;7.898;2024-01-30T07:07:58;5.00;;;3.10;;
2289;SDS011;1153;47.986;7.898;2024-01-30T07:10:23;2.00;;;1.70;;
2289;SDS011;1153;47.986;7.898;2024-01-30T07:12:48;1.87;;;1.77;;
2289;SDS011;1153;47.986;7.898;2024-01-30T07:15:13;1.60;;;1.50;;
2289;SDS011;1153;47.986;7.898;2024-01-30T07:17:41;1.67;;;1.57;;
2289;SDS011;1153;47.986;7.898;2024-01-30T07:20:06;2.65;;;2.45;;
2289;SDS011;1153;47.986;7.898;2024-01-30T07:22:32;2.40;;;2.20;;
2289;SDS011;1153;47.986;7.898;2024-01-30T07:24:58;6.50;;;2.57;;
2289;SDS011;1153;47.986;7.898;2024-01-30T07:27:23;4.55;;;2.08;;
2289;SDS011;1153;47.986;7.898;2024-01-30T07:29:48;11.40;;;2.87;;
2289;SDS011;1153;47.986;7.898;2024-01-30T07:32:13;6.23;;;2.60;;
2289;SDS011;1153;47.986;7.898;2024-01-30T07:34:39;3.10;;;2.40;;
2289;SDS011;1153;47.986;7.898;2024-01-30T07:37:04;3.80;;;3.40;;
2289;SDS011;1153;47.986;7.898;2024-01-30T07:39:29;7.40;;;2.90;;
2289;SDS011;1153;47.986;7.898;2024-01-30T07:41:54;3.27;;;3.07;;
2289;SDS011;1153;47.986;7.898;2024-01-30T07:44:20;4.65;;;3.60;;
2289;SDS011;1153;47.986;7.898;2024-01-30T07:46:45;3.50;;;3.20;;
2289;SDS011;1153;47.986;7.898;2024-01-30T07:49:10;4.97;;;2.33;;
2289;SDS011;1153;47.986;7.898;2024-01-30T07:51:35;2.50;;;2.30;;
2289;SDS011;1153;47.986;7.898;2024-01-30T07:54:00;6.05;;;2.15;;
2289;SDS011;1153;47.986;7.898;2024-01-30T07:56:26;4.30;;;2.90;;
2289;SDS011;1153;47.986;7.898;2024-01-30T07:58:51;4.80;;;2.23;;
2289;SDS011;1153;47.986;7.898;2024-01-30T08:01:16;4.60;;;2.40;;
2289;SDS011;1153;47.986;7.898;2024-01-30T08:03:41;3.10;;;2.63;;
2289;SDS011;1153;47.986;7.898;2024-01-30T08:06:07;3.53;;;3.17;;
2289;SDS011;1153;47.986;7.898;2024-01-30T08:08:32;2.67;;;2.47;;
2289;SDS011;1153;47.986;7.898;2024-01-30T08:10:57;2.75;;;1.45;;
2289;SDS011;1153;47.986;7.898;2024-01-30T08:13:22;3.07;;;2.60;;
2289;SDS011;1153;47.986;7.898;2024-01-30T08:15:47;4.05;;;1.52;;
2289;SDS011;1153;47.986;7.898;2024-01-30T08:18:13;2.60;;;2.40;;
2289;SDS011;1153;47.986;7.898;2024-01-30T08:20:38;3.90;;;2.53;;
2289;SDS011;1153;47.986;7.898;2024-01-30T08:23:03;3.10;;;2.43;;
2289;SDS011;1153;47.986;7.898;2024-01-30T08:25:28;9.10;;;1.80;;
2289;SDS011;1153;47.986;7.898;2024-01-30T08:27:53;5.50;;;2.67;;
2289;SDS011;1153;47.986;7.898;2024-01-30T08:30:19;1.90;;;1.60;;
2289;SDS011;1153;47.986;7.898;2024-01-30T08:32:44;1.30;;;1.20;;
2289;SDS011;1153;47.986;7.898;2024-01-30T08:35:09;2.93;;;1.73;;
2289;SDS011;1153;47.986;7.898;2024-01-30T08:37:34;3.50;;;2.70;;
2289;SDS011;1153;47.986;7.898;2024-01-30T08:39:59;12.30;;;2.92;;
2289;SDS011;1153;47.986;7.898;2024-01-30T08:42:25;3.47;;;2.37;;
2289;SDS011;1153;47.986;7.898;2024-01-30T08:44:50;4.20;;;4.00;;
2289;SDS011;1153;47.986;7.898;2024-01-30T08:47:17;7.47;;;4.80;;
2289;SDS011;1153;47.986;7.898;2024-01-30T08:49:43;4.10;;;3.70;;
2289;SDS011;1153;47.986;7.898;2024-01-30T08:52:09;2.80;;;2.13;;
2289;SDS011;1153;47.986;7.898;2024-01-30T08:54:34;6.07;;;2.10;;
2289;SDS011;1153;47.986;7.898;2024-01-30T08:57:00;2.90;;;2.60;;
2289;SDS011;1153;47.986;7.898;2024-01-30T08:59:25;6.23;;;5.67;;
2289;SDS011;1153;47.986;7.898;2024-01-30T09:01:50;5.33;;;4.00;;
2289;SDS011;1153;47.986;7.898;2024-01-30T09:04:18;4.20;;;3.90;;
2289;SDS011;1153;47.986;7.898;2024-01-30T09:06:43;5.07;;;3.77;;
2289;SDS011;1153;47.986;7.898;2024-01-30T09:09:08;3.05;;;2.40;;
2289;SDS011;1153;47.986;7.898;2024-01-30T09:11:34;6.17;;;4.47;;
2289;SDS011;1153;47.986;7.898;2024-01-30T09:14:00;4.10;;;3.80;;
2289;SDS011;1153;47.986;7.898;2024-01-30T09:16:25;5.65;;;5.15;;
2289;SDS011;1153;47.986;7.898;2024-01-30T09:18:50;8.57;;;4.53;;
2289;SDS011;1153;47.986;7.898;2024-01-30T09:21:15;4.85;;;4.53;;
2289;SDS011;1153;47.986;7.898;2024-01-30T09:23:41;4.50;;;3.20;;
2289;SDS011;1153;47.986;7.898;2024-01-30T09:26:06;6.10;;;4.07;;
2289;SDS011;1153;47.986;7.898;2024-01-30T09:28:31;6.40;;;4.50;;
2289;SDS011;1153;47.986;7.898;2024-01-30T09:30:56;3.65;;;3.33;;
2289;SDS011;1153;47.986;7.898;2024-01-30T09:33:21;4.15;;;3.08;;
2289;SDS011;1153;47.986;7.898;2024-01-30T09:35:46;3.50;;;2.97;;
2289;SDS011;1153;47.986;7.898;2024-01-30T09:38:12;7.53;;;4.23;;
2289;SDS011;1153;47.986;7.898;2024-01-30T09:40:37;3.43;;;2.80;;
2289;SDS011;1153;47.986;7.898;2024-01-30T09:43:02;3.10;;;2.90;;
2289;SDS011;1153;47.986;7.898;2024-01-30T09:45:28;3.93;;;3.63;;
2289;SDS011;1153;47.986;7.898;2024-01-30T09:47:54;6.07;;;3.50;;
2289;SDS011;1153;47.986;7.898;2024-01-30T09:50:19;7.07;;;3.73;;
2289;SDS011;1153;47.986;7.898;2024-01-30T09:52:45;4.73;;;4.07;;
2289;SDS011;1153;47.986;7.898;2024-01-30T09:55:10;4.80;;;4.40;;
2289;SDS011;1153;47.986;7.898;2024-01-30T09:57:35;6.00;;;3.57;;
2289;SDS011;1153;47.986;7.898;2024-01-30T10:00:01;7.77;;;6.10;;
2289;SDS011;1153;47.986;7.898;2024-01-30T10:02:27;7.37;;;4.30;;
2289;SDS011;1153;47.986;7.898;2024-01-30T10:04:52;5.73;;;4.80;;
2289;SDS011;1153;47.986;7.898;2024-01-30T10:07:17;9.20;;;4.57;;
2289;SDS011;1153;47.986;7.898;2024-01-30T10:09:43;16.13;;;5.90;;
2289;SDS011;1153;47.986;7.898;2024-01-30T10:12:08;10.20;;;4.67;;
2289;SDS011;1153;47.986;7.898;2024-01-30T10:14:34;10.53;;;5.67;;
2289;SDS011;1153;47.986;7.898;2024-01-30T10:17:01;6.33;;;5.40;;
2289;SDS011;1153;47.986;7.898;2024-01-30T10:19:26;5.63;;;5.13;;
2289;SDS011;1153;47.986;7.898;2024-01-30T10:21:51;5.90;;;5.47;;
2289;SDS011;1153;47.986;7.898;2024-01-30T10:24:17;6.37;;;4.93;;
2289;SDS011;1153;47.986;7.898;2024-01-30T10:26:43;17.33;;;6.07;;
2289;SDS011;1153;47.986;7.898;2024-01-30T10:29:08;7.80;;;4.27;;
2289;SDS011;1153;47.986;7.898;2024-01-30T10:31:34;4.90;;;4.50;;
2289;SDS011;1153;47.986;7.898;2024-01-30T10:33:59;6.67;;;4.40;;
2289;SDS011;1153;47.986;7.898;2024-01-30T10:36:28;4.67;;;4.33;;
2289;SDS011;1153;47.986;7.898;2024-01-30T10:38:53;10.20;;;4.00;;
2289;SDS011;1153;47.986;7.898;2024-01-30T10:41:21;6.67;;;4.67;;
2289;SDS011;1153;47.986;7.898;2024-01-30T10:43:54;6.60;;;4.40;;
2289;SDS011;1153;47.986;7.898;2024-01-30T10:46:23;13.73;;;4.10;;
2289;SDS011;1153;47.986;7.898;2024-01-30T10:48:57;4.67;;;4.20;;
2289;SDS011;1153;47.986;7.898;2024-01-30T10:51:26;8.07;;;4.73;;
2289;SDS011;1153;47.986;7.898;2024-01-30T10:53:52;3.80;;;3.50;;
2289;SDS011;1153;47.986;7.898;2024-01-30T10:56:18;9.00;;;4.40;;
2289;SDS011;1153;47.986;7.898;2024-01-30T10:58:45;4.87;;;3.07;;
2289;SDS011;1153;47.986;7.898;2024-01-30T11:01:10;4.87;;;4.27;;
2289;SDS011;1153;47.986;7.898;2024-01-30T11:03:36;4.70;;;4.10;;
2289;SDS011;1153;47.986;7.898;2024-01-30T11:06:02;12.53;;;4.90;;
2289;SDS011;1153;47.986;7.898;2024-01-30T11:08:27;4.83;;;4.40;;
2289;SDS011;1153;47.986;7.898;2024-01-30T11:10:57;4.70;;;3.37;;
2289;SDS011;1153;47.986;7.898;2024-01-30T11:13:31;7.80;;;5.70;;
2289;SDS011;1153;47.986;7.898;2024-01-30T11:16:00;5.43;;;4.33;;
2289;SDS011;1153;47.986;7.898;2024-01-30T11:18:25;5.37;;;4.17;;
2289;SDS011;1153;47.986;7.898;2024-01-30T11:20:51;6.53;;;4.60;;
2289;SDS011;1153;47.986;7.898;2024-01-30T11:23:16;3.50;;;2.53;;
2289;SDS011;1153;47.986;7.898;2024-01-30T11:25:43;4.73;;;1.70;;
2289;SDS011;1153;47.986;7.898;2024-01-30T11:28:12;10.70;;;3.43;;
2289;SDS011;1153;47.986;7.898;2024-01-30T11:30:38;4.00;;;3.80;;
2289;SDS011;1153;47.986;7.898;2024-01-30T11:35:41;1.27;;;0.87;;
2289;SDS011;1153;47.986;7.898;2024-01-30T11:38:10;1.07;;;0.67;;
2289;SDS011;1153;47.986;7.898;2024-01-30T11:40:36;1.70;;;0.70;;
2289;SDS011;1153;47.986;7.898;2024-01-30T11:43:03;2.40;;;0.90;;
2289;SDS011;1153;47.986;7.898;2024-01-30T11:45:29;1.23;;;0.53;;
2289;SDS011;1153;47.986;7.898;2024-01-30T11:47:55;1.70;;;0.67;;
2289;SDS011;1153;47.986;7.898;2024-01-30T11:50:20;1.20;;;0.67;;
2289;SDS011;1153;47.986;7.898;2024-01-30T11:52:45;0.80;;;0.57;;
2289;SDS011;1153;47.986;7.898;2024-01-30T11:55:10;2.20;;;0.70;;
2289;SDS011;1153;47.986;7.898;2024-01-30T11:57:37;1.23;;;0.80;;
2289;SDS011;1153;47.986;7.898;2024-01-30T12:00:02;1.00;;;0.80;;
2289;SDS011;1153;47.986;7.898;2024-01-30T12:02:33;0.80;;;0.60;;
2289;SDS011;1153;47.986;7.898;2024-01-30T12:04:58;2.73;;;0.67;;
2289;SDS011;1153;47.986;7.898;2024-01-30T12:07:23;2.03;;;0.67;;
2289;SDS011;1153;47.986;7.898;2024-01-30T12:09:52;1.20;;;0.80;;
2289;SDS011;1153;47.986;7.898;2024-01-30T12:12:17;1.13;;;1.03;;
2289;SDS011;1153;47.986;7.898;2024-01-30T12:14:42;2.70;;;1.13;;
2289;SDS011;1153;47.986;7.898;2024-01-30T12:17:07;1.30;;;0.90;;
2289;SDS011;1153;47.986;7.898;2024-01-30T12:19:34;1.53;;;1.20;;
2289;SDS011;1153;47.986;7.898;2024-01-30T12:21:59;2.23;;;0.60;;
2289;SDS011;1153;47.986;7.898;2024-01-30T12:24:25;0.83;;;0.60;;
2289;SDS011;1153;47.986;7.898;2024-01-30T12:26:50;0.90;;;0.60;;
2289;SDS011;1153;47.986;7.898;2024-01-30T12:29:16;3.43;;;0.60;;
2289;SDS011;1153;47.986;7.898;2024-01-30T12:31:42;1.50;;;0.70;;
2289;SDS011;1153;47.986;7.898;2024-01-30T12:34:07;1.77;;;0.80;;
2289;SDS011;1153;47.986;7.898;2024-01-30T12:36:32;1.03;;;0.70;;
2289;SDS011;1153;47.986;7.898;2024-01-30T12:38:58;0.80;;;0.67;;
2289;SDS011;1153;47.986;7.898;2024-01-30T12:41:23;1.30;;;1.00;;
2289;SDS011;1153;47.986;7.898;2024-01-30T12:43:53;3.83;;;0.93;;
2289;SDS011;1153;47.986;7.898;2024-01-30T12:46:19;5.80;;;1.37;;
2289;SDS011;1153;47.986;7.898;2024-01-30T12:48:44;1.17;;;0.80;;
2289;SDS011;1153;47.986;7.898;2024-01-30T12:51:09;1.30;;;0.87;;
2289;SDS011;1153;47.986;7.898;2024-01-30T12:53:34;1.43;;;0.93;;
2289;SDS011;1153;47.986;7.898;2024-01-30T12:55:59;2.10;;;1.20;;
2289;SDS011;1153;47.986;7.898;2024-01-30T12:58:24;7.30;;;1.07;;
2289;SDS011;1153;47.986;7.898;2024-01-30T13:00:50;1.83;;;0.90;;
2289;SDS011;1153;47.986;7.898;2024-01-30T13:03:15;1.90;;;0.70;;
2289;SDS011;1153;47.986;7.898;2024-01-30T13:05:40;1.87;;;1.23;;
2289;SDS011;1153;47.986;7.898;2024-01-30T13:08:06;6.80;;;1.23;;
2289;SDS011;1153;47.986;7.898;2024-01-30T13:10:31;1.60;;;0.80;;
2289;SDS011;1153;47.986;7.898;2024-01-30T13:12:56;1.60;;;0.97;;
2289;SDS011;1153;47.986;7.898;2024-01-30T13:15:21;1.90;;;0.63;;
2289;SDS011;1153;47.986;7.898;2024-01-30T13:17:47;1.50;;;0.80;;
2289;SDS011;1153;47.986;7.898;2024-01-30T13:20:13;0.93;;;0.80;;
2289;SDS011;1153;47.986;7.898;2024-01-30T13:22:41;1.10;;;1.00;;
2289;SDS011;1153;47.986;7.898;2024-01-30T13:25:07;2.47;;;1.33;;
2289;SDS011;1153;47.986;7.898;2024-01-30T13:27:32;1.00;;;0.90;;
2289;SDS011;1153;47.986;7.898;2024-01-30T13:29:57;2.35;;;0.80;;
2289;SDS011;1153;47.986;7.898;2024-01-30T13:32:22;1.83;;;1.10;;
2289;SDS011;1153;47.986;7.898;2024-01-30T13:34:47;2.35;;;0.90;;
2289;SDS011;1153;47.986;7.898;2024-01-30T13:37:13;1.40;;;0.90;;
2289;SDS011;1153;47.986;7.898;2024-01-30T13:39:38;0.93;;;0.83;;
2289;SDS011;1153;47.986;7.898;2024-01-30T13:42:04;1.63;;;0.83;;
2289;SDS011;1153;47.986;7.898;2024-01-30T13:44:29;3.70;;;1.13;;
2289;SDS011;1153;47.986;7.898;2024-01-30T13:46:54;2.60;;;0.80;;
2289;SDS011;1153;47.986;7.898;2024-01-30T13:49:20;3.23;;;1.07;;
2289;SDS011;1153;47.986;7.898;2024-01-30T13:51:45;1.33;;;0.70;;
2289;SDS011;1153;47.986;7.898;2024-01-30T13:54:10;1.20;;;0.83;;
2289;SDS011;1153;47.986;7.898;2024-01-30T13:56:35;1.30;;;0.80;;
2289;SDS011;1153;47.986;7.898;2024-01-30T13:59:01;1.33;;;1.20;;
2289;SDS011;1153;47.986;7.898;2024-01-30T14:01:29;1.73;;;0.90;;
2289;SDS011;1153;47.986;7.898;2024-01-30T14:03:55;3.90;;;0.80;;
2289;SDS011;1153;47.986;7.898;2024-01-30T14:06:20;1.20;;;0.90;;
2289;SDS011;1153;47.986;7.898;2024-01-30T14:08:45;1.10;;;0.70;;
2289;SDS011;1153;47.986;7.898;2024-01-30T14:11:10;1.17;;;0.80;;
2289;SDS011;1153;47.986;7.898;2024-01-30T14:13:35;1.77;;;1.07;;
2289;SDS011;1153;47.986;7.898;2024-01-30T14:16:01;2.60;;;1.13;;
2289;SDS011;1153;47.986;7.898;2024-01-30T14:18:26;5.30;;;1.37;;
2289;SDS011;1153;47.986;7.898;2024-01-30T14:20:51;1.40;;;1.20;;
2289;SDS011;1153;47.986;7.898;2024-01-30T14:23:17;2.30;;;0.83;;
2289;SDS011;1153;47.986;7.898;2024-01-30T14:25:42;1.10;;;0.80;;
2289;SDS011;1153;47.986;7.898;2024-01-30T14:28:07;1.20;;;1.10;;
2289;SDS011;1153;47.986;7.898;2024-01-30T14:30:32;1.30;;;0.70;;
2289;SDS011;1153;47.986;7.898;2024-01-30T14:32:58;1.57;;;1.33;;
2289;SDS011;1153;47.986;7.898;2024-01-30T14:35:23;3.00;;;1.07;;
2289;SDS011;1153;47.986;7.898;2024-01-30T14:37:48;2.20;;;1.37;;
2289;SDS011;1153;47.986;7.898;2024-01-30T14:40:14;3.10;;;0.80;;
2289;SDS011;1153;47.986;7.898;2024-01-30T14:42:39;2.78;;;1.65;;
2289;SDS011;1153;47.986;7.898;2024-01-30T14:45:05;2.90;;;1.30;;
2289;SDS011;1153;47.986;7.898;2024-01-30T14:47:30;1.60;;;1.40;;
2289;SDS011;1153;47.986;7.898;2024-01-30T14:49:56;4.00;;;1.97;;
2289;SDS011;1153;47.986;7.898;2024-01-30T14:52:21;4.03;;;1.33;;
2289;SDS011;1153;47.986;7.898;2024-01-30T14:54:46;1.30;;;1.20;;
2289;SDS011;1153;47.986;7.898;2024-01-30T14:57:12;1.53;;;1.27;;
2289;SDS011;1153;47.986;7.898;2024-01-30T14:59:39;1.90;;;1.20;;
2289;SDS011;1153;47.986;7.898;2024-01-30T15:02:04;4.10;;;1.10;;
2289;SDS011;1153;47.986;7.898;2024-01-30T15:04:29;1.20;;;1.10;;
2289;SDS011;1153;47.986;7.898;2024-01-30T15:06:54;5.27;;;1.40;;